createdAt,value
2019-01-24T00:00:51.155Z,73.97
2019-01-24T00:03:23.571Z,64.87
2019-01-24T00:05:54.763Z,72.30
2019-01-24T00:08:26.811Z,81.75
2019-01-24T00:10:59.903Z,70.05
2019-01-24T00:13:29.999Z,77.55
2019-01-24T00:16:00.159Z,74.37
2019-01-24T00:18:31.275Z,76.65
2019-01-24T00:21:01.343Z,76.45
2019-01-24T00:23:32.340Z,78.40
2019-01-24T00:26:03.427Z,62.95
2019-01-24T00:28:33.539Z,79.32
2019-01-24T00:31:03.888Z,67.37
2019-01-24T00:33:34.983Z,82.22
2019-01-24T00:36:05.162Z,69.58
2019-01-24T00:38:36.234Z,73.22
2019-01-24T00:41:06.410Z,69.75
2019-01-24T00:43:36.495Z,75.15
2019-01-24T00:46:06.597Z,73.20
2019-01-24T00:48:37.643Z,72.53
2019-01-24T00:51:07.735Z,77.65
2019-01-24T00:53:37.867Z,84.28
2019-01-24T00:56:08.898Z,71.50
2019-01-24T00:58:39.027Z,67.65
2019-01-24T01:01:09.204Z,78.17
2019-01-24T01:03:40.282Z,84.25
2019-01-24T01:06:19.323Z,74.75
2019-01-24T01:08:49.447Z,73.52
2019-01-24T01:11:21.503Z,76.20
2019-01-24T01:13:51.639Z,74.85
2019-01-24T01:16:23.679Z,71.65
2019-01-24T01:18:54.143Z,70.92
2019-01-24T01:21:24.258Z,67.08
2019-01-24T01:23:59.382Z,73.15
2019-01-24T01:26:29.595Z,79.35
2019-01-24T01:29:07.555Z,79.47
2019-01-24T01:31:39.668Z,74.30
2019-01-24T01:34:09.773Z,83.12
2019-01-24T01:36:40.090Z,75.03
2019-01-24T01:39:13.208Z,70.17
2019-01-24T01:41:43.315Z,90.40
2019-01-24T01:44:14.347Z,75.52
2019-01-24T01:46:44.507Z,70.60
2019-01-24T01:49:14.606Z,90.55
2019-01-24T01:51:46.663Z,78.97
2019-01-24T01:54:16.772Z,87.62
2019-01-24T01:56:51.316Z,80.17
2019-01-24T01:59:21.403Z,88.47
2019-01-24T02:01:51.517Z,79.70
2019-01-24T02:04:24.707Z,69.27
2019-01-24T02:06:56.780Z,79.17
2019-01-24T02:09:38.771Z,66.05
2019-01-24T02:12:10.859Z,99.60
2019-01-24T02:14:40.955Z,80.12
2019-01-24T02:17:11.047Z,84.15
2019-01-24T02:19:43.751Z,78.60
2019-01-24T02:22:16.851Z,91.12
2019-01-24T02:24:53.743Z,79.15
2019-01-24T02:27:23.877Z,100.62
2019-01-24T02:29:54.882Z,81.00
2019-01-24T02:32:24.975Z,70.85
2019-01-24T02:34:59.727Z,89.42
2019-01-24T02:37:29.814Z,95.28
2019-01-24T02:39:59.922Z,91.90
2019-01-24T02:42:32.617Z,95.22
2019-01-24T02:45:02.708Z,88.87
2019-01-24T02:47:37.110Z,92.57
2019-01-24T02:50:12.208Z,78.30
2019-01-24T02:52:45.320Z,80.53
2019-01-24T02:55:16.868Z,90.57
2019-01-24T02:57:50.339Z,75.87
2019-01-24T03:00:23.796Z,86.45
2019-01-24T03:02:53.976Z,80.45
2019-01-24T03:05:25.356Z,80.87
2019-01-24T03:07:55.443Z,86.70
2019-01-24T03:10:25.553Z,84.62
2019-01-24T03:12:55.671Z,98.97
2019-01-24T03:15:25.771Z,109.70
2019-01-24T03:17:58.890Z,100.92
2019-01-24T03:20:34.757Z,80.92
2019-01-24T03:23:04.935Z,86.35
2019-01-24T03:25:38.240Z,95.67
2019-01-24T03:28:09.284Z,89.20
2019-01-24T03:30:39.410Z,91.85
2019-01-24T03:33:10.465Z,79.00
2019-01-24T03:35:45.479Z,88.37
2019-01-24T03:38:15.565Z,77.22
2019-01-24T03:40:46.647Z,107.70
2019-01-24T03:43:18.723Z,87.57
2019-01-24T03:45:48.819Z,82.78
2019-01-24T03:48:18.930Z,82.20
2019-01-24T03:50:49.019Z,81.28
2019-01-24T03:53:20.126Z,92.78
2019-01-24T03:55:50.288Z,85.97
2019-01-24T03:58:20.407Z,72.20
2019-01-24T04:00:53.556Z,106.50
2019-01-24T04:03:23.648Z,89.77
2019-01-24T04:05:53.727Z,89.67
2019-01-24T04:08:23.839Z,91.55
2019-01-24T04:10:53.970Z,95.40
2019-01-24T04:13:24.112Z,85.85
2019-01-24T04:15:54.205Z,90.22
2019-01-24T04:18:24.288Z,91.80
2019-01-24T04:20:56.347Z,90.22
2019-01-24T04:23:26.443Z,98.37
2019-01-24T04:25:56.528Z,96.22
2019-01-24T04:28:33.387Z,101.42
2019-01-24T04:31:05.407Z,95.38
2019-01-24T04:33:35.517Z,94.95
2019-01-24T04:36:05.723Z,87.10
2019-01-24T04:38:35.827Z,86.20
2019-01-24T04:41:06.900Z,102.17
2019-01-24T04:43:37.015Z,91.57
2019-01-24T04:46:07.096Z,102.75
2019-01-24T04:48:38.191Z,89.35
2019-01-24T04:51:08.303Z,104.23
2019-01-24T04:53:39.339Z,100.45
2019-01-24T04:56:09.438Z,99.50
2019-01-24T04:58:41.547Z,102.07
2019-01-24T05:01:11.614Z,93.62
2019-01-24T05:03:42.921Z,95.22
2019-01-24T05:06:13.927Z,96.57
2019-01-24T05:08:44.057Z,97.00
2019-01-24T05:11:16.091Z,91.75
2019-01-24T05:13:47.151Z,109.92
2019-01-24T05:16:18.183Z,100.02
2019-01-24T05:18:50.258Z,109.37
2019-01-24T05:21:20.343Z,92.72
2019-01-24T05:23:50.449Z,98.37
2019-01-24T05:26:23.576Z,90.28
2019-01-24T05:28:59.743Z,108.42
2019-01-24T05:31:32.353Z,103.40
2019-01-24T05:34:02.448Z,92.67
2019-01-24T05:36:32.540Z,92.17
2019-01-24T05:39:08.147Z,96.55
2019-01-24T05:41:44.067Z,88.12
2019-01-24T05:44:16.111Z,97.75
2019-01-24T05:46:48.174Z,86.22
2019-01-24T05:49:18.308Z,104.25
2019-01-24T05:51:52.223Z,88.00
2019-01-24T05:54:22.420Z,97.40
2019-01-24T05:57:01.551Z,93.12
2019-01-24T05:59:31.679Z,100.50
2019-01-24T06:02:04.187Z,90.95
2019-01-24T06:04:37.471Z,98.22
2019-01-24T06:07:09.498Z,98.12
2019-01-24T06:09:39.590Z,110.97
2019-01-24T06:12:09.903Z,90.77
2019-01-24T06:14:46.016Z,101.40
2019-01-24T06:17:16.110Z,94.10
2019-01-24T06:19:47.178Z,102.27
2019-01-24T06:22:31.465Z,96.90
2019-01-24T06:25:01.539Z,88.12
2019-01-24T06:27:33.603Z,100.05
2019-01-24T06:30:05.327Z,86.40
2019-01-24T06:32:37.420Z,96.22
2019-01-24T06:35:10.119Z,97.78
2019-01-24T06:37:40.786Z,92.35
2019-01-24T06:40:14.795Z,93.92
2019-01-24T06:42:46.009Z,83.25
2019-01-24T06:45:22.131Z,97.53
2019-01-24T06:47:52.219Z,93.92
2019-01-24T06:50:27.407Z,102.42
2019-01-24T06:52:57.511Z,83.50
2019-01-24T06:55:28.952Z,86.80
2019-01-24T06:58:00.080Z,105.20
2019-01-24T07:00:30.155Z,78.20
2019-01-24T07:03:00.275Z,101.35
2019-01-24T07:05:30.487Z,86.97
2019-01-24T07:08:00.579Z,84.37
2019-01-24T07:10:30.683Z,102.40
2019-01-24T07:13:04.375Z,90.92
2019-01-24T07:15:36.523Z,97.80
2019-01-24T07:18:08.619Z,89.92
2019-01-24T07:20:40.599Z,88.45
2019-01-24T07:23:19.551Z,97.82
2019-01-24T07:25:49.883Z,84.10
2019-01-24T07:28:25.731Z,96.75
2019-01-24T07:30:55.811Z,81.28
2019-01-24T07:33:25.899Z,94.95
2019-01-24T07:36:01.995Z,93.90
2019-01-24T07:38:27.871Z,100.35
2019-01-24T07:40:57.947Z,106.00
2019-01-24T07:43:33.833Z,88.52
2019-01-24T07:46:05.172Z,107.80
2019-01-24T07:48:35.279Z,83.78
2019-01-24T07:51:05.571Z,96.12
2019-01-24T07:53:35.667Z,84.60
2019-01-24T07:56:06.212Z,80.62
2019-01-24T07:58:36.299Z,95.10
2019-01-24T08:01:07.400Z,79.42
2019-01-24T08:03:38.423Z,99.77
2019-01-24T08:06:12.547Z,90.53
2019-01-24T08:08:43.591Z,88.07
2019-01-24T08:11:13.689Z,86.05
2019-01-24T08:13:49.661Z,90.47
2019-01-24T08:16:20.687Z,90.10
2019-01-24T08:18:50.807Z,90.72
2019-01-24T08:21:24.001Z,88.85
2019-01-24T08:23:59.859Z,96.25
2019-01-24T08:26:36.720Z,85.85
2019-01-24T08:29:06.839Z,104.00
2019-01-24T08:31:36.923Z,79.30
2019-01-24T08:34:10.041Z,83.87
2019-01-24T08:36:40.132Z,84.77
2019-01-24T08:39:12.315Z,83.87
2019-01-24T08:41:46.031Z,85.77
2019-01-24T08:44:17.076Z,93.87
2019-01-24T08:46:47.171Z,104.55
2019-01-24T08:49:17.275Z,88.30
2019-01-24T08:51:47.359Z,95.35
2019-01-24T08:54:17.469Z,84.07
2019-01-24T08:56:47.547Z,82.40
2019-01-24T08:59:17.679Z,83.30
2019-01-24T09:01:47.751Z,99.10
2019-01-24T09:04:18.843Z,92.78
2019-01-24T09:06:49.003Z,80.20
2019-01-24T09:09:19.108Z,91.08
2019-01-24T09:11:49.856Z,81.82
2019-01-24T09:14:21.903Z,78.83
2019-01-24T09:16:52.003Z,72.82
2019-01-24T09:19:27.817Z,86.60
2019-01-24T09:21:59.811Z,90.50
2019-01-24T09:24:33.015Z,86.00
2019-01-24T09:27:04.299Z,77.62
2019-01-24T09:29:36.283Z,80.35
2019-01-24T09:32:08.380Z,80.40
2019-01-24T09:34:38.471Z,74.17
2019-01-24T09:37:17.653Z,74.92
2019-01-24T09:39:49.281Z,70.20
2019-01-24T09:42:25.341Z,83.58
2019-01-24T09:44:55.431Z,75.55
2019-01-24T09:47:35.427Z,80.70
2019-01-24T09:50:18.571Z,72.75
2019-01-24T09:52:48.794Z,67.20
2019-01-24T09:55:24.923Z,68.12
2019-01-24T09:57:55.084Z,81.10
2019-01-24T10:00:30.303Z,74.72
2019-01-24T10:03:01.548Z,65.90
2019-01-24T10:05:31.775Z,65.17
2019-01-24T10:08:01.858Z,71.72
2019-01-24T10:10:32.037Z,64.37
2019-01-24T10:13:14.883Z,69.47
2019-01-24T10:15:44.996Z,61.02
2019-01-24T10:18:21.638Z,67.40
2019-01-24T10:20:50.687Z,67.25
2019-01-24T10:23:25.392Z,64.27
2019-01-24T10:25:55.467Z,65.37
2019-01-24T10:28:30.559Z,59.03
2019-01-24T10:31:00.664Z,56.53
2019-01-24T10:33:30.795Z,62.05
2019-01-24T10:36:00.912Z,65.95
2019-01-24T10:38:30.999Z,64.77
2019-01-24T10:41:02.068Z,64.53
2019-01-24T10:43:33.190Z,59.50
2019-01-24T10:46:09.052Z,57.88
2019-01-24T10:48:40.175Z,56.10
2019-01-24T10:51:12.267Z,53.02
2019-01-24T10:53:43.323Z,55.40
2019-01-24T10:56:16.408Z,54.10
2019-01-24T10:58:46.493Z,53.52
2019-01-24T11:01:16.656Z,58.65
2019-01-24T11:03:46.756Z,68.55
2019-01-24T11:06:22.922Z,67.87
2019-01-24T11:08:53.010Z,69.87
2019-01-24T11:11:30.984Z,58.08
2019-01-24T11:14:07.422Z,59.40
2019-01-24T11:16:37.527Z,58.58
2019-01-24T11:19:07.642Z,61.58
2019-01-24T11:21:37.710Z,63.80
2019-01-24T11:24:07.944Z,62.75
2019-01-24T11:26:39.961Z,53.60
2019-01-24T11:29:11.004Z,73.15
2019-01-24T11:31:47.593Z,55.58
2019-01-24T11:34:17.696Z,53.30
2019-01-24T11:36:47.787Z,54.40
2019-01-24T11:39:21.187Z,62.53
2019-01-24T11:41:52.244Z,54.20
2019-01-24T11:44:28.119Z,67.90
2019-01-24T11:46:59.140Z,53.65
2019-01-24T11:49:35.453Z,56.42
2019-01-24T11:52:11.480Z,53.78
2019-01-24T11:54:41.556Z,57.23
2019-01-24T11:57:20.916Z,53.60
2019-01-24T11:59:51.004Z,60.20
2019-01-24T12:02:21.088Z,54.93
2019-01-24T12:04:51.174Z,53.50
2019-01-24T12:07:22.914Z,51.35
2019-01-24T12:09:53.016Z,63.70
2019-01-24T12:12:27.316Z,57.20
2019-01-24T12:14:57.420Z,53.68
2019-01-24T12:17:29.423Z,51.53
2019-01-24T12:20:00.476Z,54.38
2019-01-24T12:22:33.766Z,61.65
2019-01-24T12:25:04.776Z,45.63
2019-01-24T12:27:35.771Z,51.18
2019-01-24T12:30:13.220Z,52.30
2019-01-24T12:32:52.229Z,52.95
2019-01-24T12:35:29.734Z,49.88
2019-01-24T12:38:01.703Z,51.40
2019-01-24T12:40:31.804Z,49.03
2019-01-24T12:43:05.261Z,55.40
2019-01-24T12:45:38.028Z,61.65
2019-01-24T12:48:08.365Z,57.13
2019-01-24T12:50:38.461Z,55.65
2019-01-24T12:53:08.771Z,58.63
2019-01-24T12:55:38.900Z,57.55
2019-01-24T12:58:09.119Z,52.15
2019-01-24T13:00:45.060Z,57.05
2019-01-24T13:03:15.224Z,60.00
2019-01-24T13:05:45.308Z,57.88
2019-01-24T13:08:16.388Z,54.15
2019-01-24T13:10:47.380Z,54.88
2019-01-24T13:13:17.492Z,55.40
2019-01-24T13:15:48.550Z,56.65
2019-01-24T13:18:21.728Z,61.58
2019-01-24T13:20:51.816Z,52.65
2019-01-24T13:23:23.056Z,51.92
2019-01-24T13:25:53.172Z,60.78
2019-01-24T13:28:27.346Z,61.33
2019-01-24T13:30:58.404Z,67.58
2019-01-24T13:33:28.520Z,56.45
2019-01-24T13:35:59.523Z,57.50
2019-01-24T13:38:31.520Z,55.48
2019-01-24T13:41:01.612Z,55.75
2019-01-24T13:43:40.668Z,53.80
2019-01-24T13:46:10.844Z,48.45
2019-01-24T13:48:42.916Z,63.10
2019-01-24T13:51:13.008Z,50.40
2019-01-24T13:53:43.108Z,56.33
2019-01-24T13:56:13.239Z,53.75
2019-01-24T13:58:45.260Z,51.73
2019-01-24T14:01:15.420Z,52.45
2019-01-24T14:03:48.138Z,56.50
2019-01-24T14:06:20.200Z,54.03
2019-01-24T14:08:50.290Z,62.17
2019-01-24T14:11:39.836Z,56.08
2019-01-24T14:14:09.914Z,58.80
2019-01-24T14:16:40.032Z,63.80
2019-01-24T14:19:11.918Z,54.50
2019-01-24T14:21:42.920Z,61.98
2019-01-24T14:24:13.018Z,61.42
2019-01-24T14:26:49.928Z,54.23
2019-01-24T14:29:20.188Z,61.28
2019-01-24T14:31:50.268Z,59.63
2019-01-24T14:34:20.376Z,59.93
2019-01-24T14:36:51.625Z,57.83
2019-01-24T14:39:21.720Z,59.13
2019-01-24T14:41:51.817Z,61.40
2019-01-24T14:44:21.924Z,59.38
2019-01-24T14:46:52.008Z,52.17
2019-01-24T14:49:22.101Z,68.85
2019-01-24T14:51:52.196Z,56.30
2019-01-24T14:54:22.296Z,67.85
2019-01-24T14:56:52.384Z,54.00
2019-01-24T14:59:22.496Z,59.18
2019-01-24T15:01:58.652Z,56.85
2019-01-24T15:04:28.732Z,61.25
2019-01-24T15:07:00.744Z,58.58
2019-01-24T15:09:30.838Z,62.48
2019-01-24T15:12:09.976Z,63.25
2019-01-24T15:14:41.944Z,62.10
2019-01-24T15:17:12.042Z,50.90
2019-01-24T15:19:42.180Z,66.60
2019-01-24T15:22:13.220Z,66.33
2019-01-24T15:24:50.224Z,61.30
2019-01-24T15:27:22.280Z,61.30
2019-01-24T15:29:52.404Z,58.80
2019-01-24T15:32:22.536Z,65.50
2019-01-24T15:35:02.687Z,71.95
2019-01-24T15:37:42.524Z,70.17
2019-01-24T15:40:22.416Z,60.10
2019-01-24T15:42:52.604Z,59.50
2019-01-24T15:45:35.835Z,65.05
2019-01-24T15:48:07.148Z,58.25
2019-01-24T15:50:37.256Z,59.85
2019-01-24T15:53:08.440Z,67.58
2019-01-24T15:55:38.534Z,73.47
2019-01-24T15:58:09.556Z,68.30
2019-01-24T16:00:40.690Z,72.00
2019-01-24T16:03:11.702Z,69.35
2019-01-24T16:05:42.805Z,73.87
2019-01-24T16:08:12.909Z,74.47
2019-01-24T16:10:42.977Z,73.47
2019-01-24T16:13:16.222Z,82.33
2019-01-24T16:15:46.316Z,78.55
2019-01-24T16:18:22.201Z,69.45
2019-01-24T16:20:52.388Z,75.70
2019-01-24T16:23:22.480Z,81.60
2019-01-24T16:25:52.568Z,73.62
2019-01-24T16:28:24.803Z,89.17
2019-01-24T16:30:54.492Z,89.22
2019-01-24T16:33:24.609Z,69.67
2019-01-24T16:35:55.704Z,76.50
2019-01-24T16:38:31.661Z,79.82
2019-01-24T16:41:01.756Z,74.03
2019-01-24T16:43:33.392Z,81.32
2019-01-24T16:46:03.555Z,84.07
2019-01-24T16:48:33.675Z,109.45
2019-01-24T16:51:04.796Z,138.80
2019-01-24T16:53:34.885Z,83.60
2019-01-24T16:56:05.387Z,78.02
2019-01-24T16:58:35.512Z,81.10
2019-01-24T17:01:12.136Z,87.45
2019-01-24T17:03:43.120Z,95.53
2019-01-24T17:06:15.093Z,82.08
2019-01-24T17:08:51.008Z,85.25
2019-01-24T17:11:29.866Z,93.50
2019-01-24T17:14:00.053Z,77.78
2019-01-24T17:16:31.208Z,84.60
2019-01-24T17:19:01.472Z,85.22
2019-01-24T17:21:31.652Z,97.90
2019-01-24T17:24:01.822Z,87.17
2019-01-24T17:26:32.821Z,97.08
2019-01-24T17:29:05.372Z,92.82
2019-01-24T17:31:39.080Z,95.47
2019-01-24T17:34:11.120Z,85.12
2019-01-24T17:36:45.334Z,89.25
2019-01-24T17:39:15.431Z,79.97
2019-01-24T17:41:45.516Z,85.38
2019-01-24T17:44:17.525Z,84.90
2019-01-24T17:46:54.420Z,87.67
2019-01-24T17:49:31.309Z,82.30
2019-01-24T17:52:07.465Z,81.00
2019-01-24T17:54:37.585Z,75.62
2019-01-24T17:57:10.865Z,95.28
2019-01-24T17:59:40.969Z,91.57
2019-01-24T18:02:13.082Z,85.47
2019-01-24T18:04:43.165Z,80.22
2019-01-24T18:07:13.337Z,74.22
2019-01-24T18:09:43.377Z,83.67
2019-01-24T18:12:14.395Z,82.40
2019-01-24T18:14:45.489Z,89.40
2019-01-24T18:17:15.586Z,92.30
2019-01-24T18:19:45.709Z,93.30
2019-01-24T18:22:15.816Z,82.70
2019-01-24T18:24:49.089Z,84.97
2019-01-24T18:27:19.208Z,83.03
2019-01-24T18:29:50.289Z,95.80
2019-01-24T18:32:20.413Z,92.95
2019-01-24T18:34:50.528Z,95.92
2019-01-24T18:37:24.641Z,85.32
2019-01-24T18:39:54.989Z,92.22
2019-01-24T18:42:26.090Z,87.95
2019-01-24T18:44:56.170Z,83.95
2019-01-24T18:47:27.279Z,96.20
2019-01-24T18:49:57.409Z,92.65
2019-01-24T18:52:27.497Z,79.97
2019-01-24T18:54:57.612Z,82.97
2019-01-24T18:57:34.425Z,75.22
2019-01-24T19:00:10.804Z,85.35
2019-01-24T19:02:42.893Z,81.97
2019-01-24T19:05:15.001Z,95.12
2019-01-24T19:07:45.172Z,98.33
2019-01-24T19:10:16.412Z,94.97
2019-01-24T19:12:46.605Z,98.67
2019-01-24T19:15:19.665Z,94.10
2019-01-24T19:17:50.889Z,85.30
2019-01-24T19:20:21.161Z,93.00
2019-01-24T19:22:51.762Z,93.10
2019-01-24T19:25:22.323Z,90.00
2019-01-24T19:27:57.416Z,102.62
2019-01-24T19:30:32.101Z,91.67
2019-01-24T19:33:02.665Z,108.52
2019-01-24T19:35:32.794Z,91.95
2019-01-24T19:38:03.041Z,100.12
2019-01-24T19:40:36.825Z,105.65
2019-01-24T19:43:13.907Z,96.30
2019-01-24T19:45:44.152Z,94.95
2019-01-24T19:48:14.296Z,112.85
2019-01-24T19:50:44.385Z,96.42
2019-01-24T19:53:14.489Z,110.85
2019-01-24T19:55:44.597Z,114.25
2019-01-24T19:58:15.687Z,111.47
2019-01-24T20:00:45.805Z,110.15
2019-01-24T20:03:17.841Z,119.53
2019-01-24T20:05:47.957Z,108.52
2019-01-24T20:08:19.023Z,108.75
2019-01-24T20:10:49.181Z,117.47
2019-01-24T20:13:25.242Z,114.37
2019-01-24T20:15:55.349Z,107.32
2019-01-24T20:18:26.441Z,118.45
2019-01-24T20:20:56.549Z,108.78
2019-01-24T20:23:27.666Z,125.15
2019-01-24T20:25:58.746Z,120.45
2019-01-24T20:28:29.780Z,115.85
2019-01-24T20:30:59.921Z,119.17
2019-01-24T20:33:34.021Z,113.47
2019-01-24T20:36:06.837Z,119.47
2019-01-24T20:38:37.861Z,107.10
2019-01-24T20:41:08.849Z,112.95
2019-01-24T20:43:47.465Z,128.15
2019-01-24T20:46:17.597Z,130.03
2019-01-24T20:48:49.627Z,129.00
2019-01-24T20:51:19.745Z,125.78
2019-01-24T20:53:49.837Z,130.63
2019-01-24T20:56:20.641Z,119.55
2019-01-24T20:58:57.057Z,117.60
2019-01-24T21:01:27.161Z,123.72
2019-01-24T21:03:57.261Z,102.22
2019-01-24T21:06:27.464Z,122.75
2019-01-24T21:08:57.589Z,119.55
2019-01-24T21:11:27.781Z,145.20
2019-01-24T21:13:57.913Z,133.72
2019-01-24T21:16:28.012Z,128.87
2019-01-24T21:18:58.105Z,117.45
2019-01-24T21:21:29.221Z,118.77
2019-01-24T21:23:59.410Z,110.20
2019-01-24T21:26:36.521Z,123.13
2019-01-24T21:29:08.393Z,111.83
2019-01-24T21:31:38.589Z,123.97
2019-01-24T21:34:08.697Z,122.17
2019-01-24T21:36:38.801Z,134.05
2019-01-24T21:39:10.249Z,131.75
2019-01-24T21:41:43.621Z,126.30
2019-01-24T21:44:14.725Z,128.85
2019-01-24T21:46:46.009Z,124.50
2019-01-24T21:49:16.101Z,136.22
2019-01-24T21:51:47.249Z,136.15
2019-01-24T21:54:17.357Z,133.90
2019-01-24T21:56:48.729Z,149.40
2019-01-24T21:59:19.021Z,134.67
2019-01-24T22:01:49.157Z,158.07
2019-01-24T22:04:19.412Z,139.05
2019-01-24T22:06:49.513Z,142.98
2019-01-24T22:09:19.629Z,143.95
2019-01-24T22:11:50.921Z,151.75
2019-01-24T22:14:22.621Z,124.12
2019-01-24T22:16:58.521Z,115.05
2019-01-24T22:19:29.617Z,134.78
2019-01-24T22:21:59.732Z,126.07
2019-01-24T22:24:29.833Z,134.67
2019-01-24T22:26:59.933Z,151.00
2019-01-24T22:29:30.101Z,136.05
2019-01-24T22:32:01.381Z,133.95
2019-01-24T22:34:31.801Z,132.35
2019-01-24T22:37:01.913Z,147.43
2019-01-24T22:39:36.509Z,133.60
2019-01-24T22:42:06.112Z,127.32
2019-01-24T22:44:36.265Z,142.25
2019-01-24T22:47:06.421Z,141.43
2019-01-24T22:49:50.465Z,132.32
2019-01-24T22:52:21.501Z,148.22
2019-01-24T22:54:53.591Z,130.95
2019-01-24T22:57:23.709Z,154.45
2019-01-24T22:59:54.073Z,133.03
2019-01-24T23:02:30.445Z,125.15
2019-01-24T23:05:09.021Z,134.12
2019-01-24T23:07:40.029Z,133.97
2019-01-24T23:10:11.649Z,141.65
2019-01-24T23:12:49.773Z,129.87
2019-01-24T23:15:20.837Z,124.05
2019-01-24T23:17:51.873Z,132.18
2019-01-24T23:20:27.697Z,131.45
2019-01-24T23:22:59.789Z,128.55
2019-01-24T23:25:32.329Z,137.03
2019-01-24T23:28:07.569Z,135.90
2019-01-24T23:30:37.730Z,143.47
2019-01-24T23:33:08.803Z,126.40
2019-01-24T23:35:38.901Z,125.90
2019-01-24T23:38:09.065Z,122.55
2019-01-24T23:40:45.076Z,143.28
2019-01-24T23:43:15.194Z,114.10
2019-01-24T23:45:46.068Z,154.07
2019-01-24T23:48:16.337Z,132.80
2019-01-24T23:50:46.493Z,128.23
2019-01-24T23:53:18.511Z,130.00
2019-01-24T23:55:48.606Z,109.72
2019-01-24T23:58:18.721Z,152.87
